sensor_id;sensor_type;location;lat;lon;timestamp;P1;durP1;ratioP1;P2;durP2;ratioP2
11121;SDS011;5615;49.304;10.576;2023-08-12T00:02:24;11.43;;;9.70;;
11121;SDS011;5615;49.304;10.576;2023-08-12T00:04:50;12.77;;;9.25;;
11121;SDS011;5615;49.304;10.576;2023-08-12T00:07:17;11.23;;;9.48;;
11121;SDS011;5615;49.304;10.576;2023-08-12T00:09:43;12.93;;;9.18;;
11121;SDS011;5615;49.304;10.576;2023-08-12T00:12:10;11.90;;;10.57;;
11121;SDS011;5615;49.304;10.576;2023-08-12T00:14:37;10.80;;;9.43;;
11121;SDS011;5615;49.304;10.576;2023-08-12T00:17:05;10.50;;;9.48;;
11121;SDS011;5615;49.304;10.576;2023-08-12T00:19:31;15.20;;;9.70;;
11121;SDS011;5615;49.304;10.576;2023-08-12T00:21:58;10.82;;;9.65;;
11121;SDS011;5615;49.304;10.576;2023-08-12T00:24:24;11.75;;;10.13;;
11121;SDS011;5615;49.304;10.576;2023-08-12T00:26:51;10.77;;;9.68;;
11121;SDS011;5615;49.304;10.576;2023-08-12T00:29:18;10.00;;;9.02;;
11121;SDS011;5615;49.304;10.576;2023-08-12T00:31:44;11.40;;;10.05;;
11121;SDS011;5615;49.304;10.576;2023-08-12T00:34:12;13.20;;;10.63;;
11121;SDS011;5615;49.304;10.576;2023-08-12T00:36:39;10.93;;;9.65;;
11121;SDS011;5615;49.304;10.576;2023-08-12T00:39:05;10.50;;;9.43;;
11121;SDS011;5615;49.304;10.576;2023-08-12T00:41:32;10.98;;;9.82;;
11121;SDS011;5615;49.304;10.576;2023-08-12T00:43:59;10.07;;;8.80;;
11121;SDS011;5615;49.304;10.576;2023-08-12T00:46:25;13.55;;;10.57;;
11121;SDS011;5615;49.304;10.576;2023-08-12T00:48:52;15.13;;;9.77;;
11121;SDS011;5615;49.304;10.576;2023-08-12T00:51:20;11.98;;;9.43;;
11121;SDS011;5615;49.304;10.576;2023-08-12T00:53:47;10.60;;;9.20;;
11121;SDS011;5615;49.304;10.576;2023-08-12T00:56:16;10.25;;;9.35;;
11121;SDS011;5615;49.304;10.576;2023-08-12T00:58:43;10.40;;;9.50;;
11121;SDS011;5615;49.304;10.576;2023-08-12T01:01:10;11.38;;;9.50;;
11121;SDS011;5615;49.304;10.576;2023-08-12T01:03:38;12.15;;;9.50;;
11121;SDS011;5615;49.304;10.576;2023-08-12T01:06:05;11.05;;;9.90;;
11121;SDS011;5615;49.304;10.576;2023-08-12T01:08:34;11.23;;;10.10;;
11121;SDS011;5615;49.304;10.576;2023-08-12T01:11:02;10.23;;;9.20;;
11121;SDS011;5615;49.304;10.576;2023-08-12T01:13:34;11.45;;;10.35;;
11121;SDS011;5615;49.304;10.576;2023-08-12T01:16:11;11.43;;;9.85;;
11121;SDS011;5615;49.304;10.576;2023-08-12T01:18:41;11.63;;;9.50;;
11121;SDS011;5615;49.304;10.576;2023-08-12T01:21:08;11.70;;;9.85;;
11121;SDS011;5615;49.304;10.576;2023-08-12T01:23:42;11.00;;;9.90;;
11121;SDS011;5615;49.304;10.576;2023-08-12T01:26:10;11.05;;;9.90;;
11121;SDS011;5615;49.304;10.576;2023-08-12T01:28:37;10.27;;;9.23;;
11121;SDS011;5615;49.304;10.576;2023-08-12T01:31:05;10.55;;;9.38;;
11121;SDS011;5615;49.304;10.576;2023-08-12T01:33:41;11.32;;;9.25;;
11121;SDS011;5615;49.304;10.576;2023-08-12T01:36:12;12.70;;;10.00;;
11121;SDS011;5615;49.304;10.576;2023-08-12T01:38:43;10.50;;;9.50;;
11121;SDS011;5615;49.304;10.576;2023-08-12T01:41:11;12.10;;;9.48;;
11121;SDS011;5615;49.304;10.576;2023-08-12T01:43:39;10.85;;;9.77;;
11121;SDS011;5615;49.304;10.576;2023-08-12T01:46:07;11.25;;;10.10;;
11121;SDS011;5615;49.304;10.576;2023-08-12T01:48:34;13.32;;;10.15;;
11121;SDS011;5615;49.304;10.576;2023-08-12T01:51:00;11.60;;;10.40;;
11121;SDS011;5615;49.304;10.576;2023-08-12T01:53:28;11.68;;;10.38;;
11121;SDS011;5615;49.304;10.576;2023-08-12T01:55:56;11.63;;;9.50;;
11121;SDS011;5615;49.304;10.576;2023-08-12T01:58:22;12.07;;;10.25;;
11121;SDS011;5615;49.304;10.576;2023-08-12T02:00:51;13.20;;;10.82;;
11121;SDS011;5615;49.304;10.576;2023-08-12T02:03:17;11.57;;;9.55;;
11121;SDS011;5615;49.304;10.576;2023-08-12T02:05:44;11.57;;;10.30;;
11121;SDS011;5615;49.304;10.576;2023-08-12T02:08:11;13.38;;;10.77;;
11121;SDS011;5615;49.304;10.576;2023-08-12T02:10:38;13.60;;;11.27;;
11121;SDS011;5615;49.304;10.576;2023-08-12T02:13:06;11.60;;;10.40;;
11121;SDS011;5615;49.304;10.576;2023-08-12T02:15:33;16.10;;;10.55;;
11121;SDS011;5615;49.304;10.576;2023-08-12T02:18:00;16.77;;;10.23;;
11121;SDS011;5615;49.304;10.576;2023-08-12T02:20:26;12.43;;;11.23;;
11121;SDS011;5615;49.304;10.576;2023-08-12T02:22:53;12.30;;;11.07;;
11121;SDS011;5615;49.304;10.576;2023-08-12T02:25:20;13.43;;;11.48;;
11121;SDS011;5615;49.304;10.576;2023-08-12T02:27:46;12.77;;;11.48;;
11121;SDS011;5615;49.304;10.576;2023-08-12T02:30:14;14.95;;;12.07;;
11121;SDS011;5615;49.304;10.576;2023-08-12T02:32:41;12.43;;;11.15;;
11121;SDS011;5615;49.304;10.576;2023-08-12T02:35:08;12.23;;;10.82;;
11121;SDS011;5615;49.304;10.576;2023-08-12T02:37:35;11.38;;;10.25;;
11121;SDS011;5615;49.304;10.576;2023-08-12T02:40:02;14.60;;;11.27;;
11121;SDS011;5615;49.304;10.576;2023-08-12T02:42:30;13.38;;;11.45;;
11121;SDS011;5615;49.304;10.576;2023-08-12T02:44:57;17.15;;;11.80;;
11121;SDS011;5615;49.304;10.576;2023-08-12T02:47:26;19.48;;;11.63;;
11121;SDS011;5615;49.304;10.576;2023-08-12T02:49:52;13.13;;;11.20;;
11121;SDS011;5615;49.304;10.576;2023-08-12T02:52:19;17.35;;;11.88;;
11121;SDS011;5615;49.304;10.576;2023-08-12T02:54:46;17.70;;;12.20;;
11121;SDS011;5615;49.304;10.576;2023-08-12T02:57:12;13.52;;;11.38;;
11121;SDS011;5615;49.304;10.576;2023-08-12T02:59:39;13.70;;;10.88;;
11121;SDS011;5615;49.304;10.576;2023-08-12T03:02:05;13.60;;;10.48;;
11121;SDS011;5615;49.304;10.576;2023-08-12T03:04:33;11.55;;;10.40;;
11121;SDS011;5615;49.304;10.576;2023-08-12T03:07:00;11.30;;;9.90;;
11121;SDS011;5615;49.304;10.576;2023-08-12T03:09:27;14.18;;;10.90;;
11121;SDS011;5615;49.304;10.576;2023-08-12T03:11:54;11.27;;;10.02;;
11121;SDS011;5615;49.304;10.576;2023-08-12T03:14:21;14.30;;;10.20;;
11121;SDS011;5615;49.304;10.576;2023-08-12T03:16:48;13.07;;;10.30;;
11121;SDS011;5615;49.304;10.576;2023-08-12T03:19:14;11.73;;;10.18;;
11121;SDS011;5615;49.304;10.576;2023-08-12T03:21:42;12.18;;;9.77;;
11121;SDS011;5615;49.304;10.576;2023-08-12T03:24:09;11.25;;;9.60;;
11121;SDS011;5615;49.304;10.576;2023-08-12T03:26:35;11.40;;;10.20;;
11121;SDS011;5615;49.304;10.576;2023-08-12T03:29:02;11.52;;;10.32;;
11121;SDS011;5615;49.304;10.576;2023-08-12T03:31:29;11.23;;;10.13;;
11121;SDS011;5615;49.304;10.576;2023-08-12T03:33:55;12.25;;;10.15;;
11121;SDS011;5615;49.304;10.576;2023-08-12T03:36:22;11.30;;;10.10;;
11121;SDS011;5615;49.304;10.576;2023-08-12T03:38:50;11.73;;;9.85;;
11121;SDS011;5615;49.304;10.576;2023-08-12T03:41:16;11.25;;;10.10;;
11121;SDS011;5615;49.304;10.576;2023-08-12T03:43:43;12.57;;;10.00;;
11121;SDS011;5615;49.304;10.576;2023-08-12T03:46:11;11.48;;;9.70;;
11121;SDS011;5615;49.304;10.576;2023-08-12T03:48:37;11.20;;;10.10;;
11121;SDS011;5615;49.304;10.576;2023-08-12T03:51:04;13.90;;;10.25;;
11121;SDS011;5615;49.304;10.576;2023-08-12T03:53:31;11.18;;;10.10;;
11121;SDS011;5615;49.304;10.576;2023-08-12T03:55:58;11.13;;;9.70;;
11121;SDS011;5615;49.304;10.576;2023-08-12T03:58:25;11.63;;;9.75;;
11121;SDS011;5615;49.304;10.576;2023-08-12T04:00:52;11.07;;;9.82;;
11121;SDS011;5615;49.304;10.576;2023-08-12T04:03:18;11.50;;;9.45;;
11121;SDS011;5615;49.304;10.576;2023-08-12T04:05:48;10.98;;;9.85;;
11121;SDS011;5615;49.304;10.576;2023-08-12T04:08:17;10.48;;;9.48;;
11121;SDS011;5615;49.304;10.576;2023-08-12T04:10:44;10.52;;;9.52;;
11121;SDS011;5615;49.304;10.576;2023-08-12T04:13:14;10.68;;;9.65;;
11121;SDS011;5615;49.304;10.576;2023-08-12T04:15:40;10.07;;;9.18;;
11121;SDS011;5615;49.304;10.576;2023-08-12T04:18:07;11.10;;;9.18;;
11121;SDS011;5615;49.304;10.576;2023-08-12T04:20:34;13.13;;;9.43;;
11121;SDS011;5615;49.304;10.576;2023-08-12T04:23:03;10.38;;;9.45;;
11121;SDS011;5615;49.304;10.576;2023-08-12T04:25:29;10.50;;;9.15;;
11121;SDS011;5615;49.304;10.576;2023-08-12T04:27:56;10.60;;;8.88;;
11121;SDS011;5615;49.304;10.576;2023-08-12T04:30:24;11.00;;;9.85;;
11121;SDS011;5615;49.304;10.576;2023-08-12T04:32:51;11.05;;;9.00;;
11121;SDS011;5615;49.304;10.576;2023-08-12T04:35:18;12.75;;;9.57;;
11121;SDS011;5615;49.304;10.576;2023-08-12T04:37:44;13.63;;;10.40;;
11121;SDS011;5615;49.304;10.576;2023-08-12T04:40:11;12.38;;;9.77;;
11121;SDS011;5615;49.304;10.576;2023-08-12T04:42:37;12.63;;;9.30;;
11121;SDS011;5615;49.304;10.576;2023-08-12T04:45:04;10.68;;;9.25;;
11121;SDS011;5615;49.304;10.576;2023-08-12T04:47:34;11.23;;;9.38;;
11121;SDS011;5615;49.304;10.576;2023-08-12T04:50:00;12.00;;;9.18;;
11121;SDS011;5615;49.304;10.576;2023-08-12T04:52:27;10.48;;;8.95;;
11121;SDS011;5615;49.304;10.576;2023-08-12T04:54:54;10.57;;;8.95;;
11121;SDS011;5615;49.304;10.576;2023-08-12T04:57:20;10.20;;;9.18;;
11121;SDS011;5615;49.304;10.576;2023-08-12T04:59:47;11.57;;;8.77;;
11121;SDS011;5615;49.304;10.576;2023-08-12T05:02:14;11.75;;;9.50;;
11121;SDS011;5615;49.304;10.576;2023-08-12T05:04:42;10.88;;;9.00;;
11121;SDS011;5615;49.304;10.576;2023-08-12T05:07:08;11.55;;;8.70;;
11121;SDS011;5615;49.304;10.576;2023-08-12T05:09:35;12.75;;;8.75;;
11121;SDS011;5615;49.304;10.576;2023-08-12T05:12:02;10.77;;;8.55;;
11121;SDS011;5615;49.304;10.576;2023-08-12T05:14:29;12.18;;;9.02;;
11121;SDS011;5615;49.304;10.576;2023-08-12T05:16:55;11.45;;;8.43;;
11121;SDS011;5615;49.304;10.576;2023-08-12T05:19:22;9.75;;;7.95;;
11121;SDS011;5615;49.304;10.576;2023-08-12T05:21:50;12.18;;;7.10;;
11121;SDS011;5615;49.304;10.576;2023-08-12T05:24:16;8.18;;;7.10;;
11121;SDS011;5615;49.304;10.576;2023-08-12T05:26:43;7.40;;;6.55;;
11121;SDS011;5615;49.304;10.576;2023-08-12T05:29:10;6.78;;;6.18;;
11121;SDS011;5615;49.304;10.576;2023-08-12T05:31:36;7.03;;;6.32;;
11121;SDS011;5615;49.304;10.576;2023-08-12T05:34:03;6.28;;;5.68;;
11121;SDS011;5615;49.304;10.576;2023-08-12T05:36:30;7.13;;;6.43;;
11121;SDS011;5615;49.304;10.576;2023-08-12T05:38:58;7.72;;;6.95;;
11121;SDS011;5615;49.304;10.576;2023-08-12T05:41:25;6.80;;;6.20;;
11121;SDS011;5615;49.304;10.576;2023-08-12T05:43:52;6.28;;;5.68;;
11121;SDS011;5615;49.304;10.576;2023-08-12T05:46:18;6.10;;;5.50;;
11121;SDS011;5615;49.304;10.576;2023-08-12T05:48:45;7.18;;;5.78;;
11121;SDS011;5615;49.304;10.576;2023-08-12T05:51:12;6.63;;;5.22;;
11121;SDS011;5615;49.304;10.576;2023-08-12T05:53:38;6.20;;;5.60;;
11121;SDS011;5615;49.304;10.576;2023-08-12T05:56:06;6.65;;;5.95;;
11121;SDS011;5615;49.304;10.576;2023-08-12T05:58:33;5.82;;;5.30;;
11121;SDS011;5615;49.304;10.576;2023-08-12T06:01:00;6.90;;;5.03;;
11121;SDS011;5615;49.304;10.576;2023-08-12T06:03:26;5.60;;;5.00;;
11121;SDS011;5615;49.304;10.576;2023-08-12T06:05:53;5.85;;;5.15;;
11121;SDS011;5615;49.304;10.576;2023-08-12T06:08:19;6.10;;;5.50;;
11121;SDS011;5615;49.304;10.576;2023-08-12T06:10:46;7.18;;;5.78;;
11121;SDS011;5615;49.304;10.576;2023-08-12T06:13:14;5.32;;;4.90;;
11121;SDS011;5615;49.304;10.576;2023-08-12T06:15:41;5.65;;;5.05;;
11121;SDS011;5615;49.304;10.576;2023-08-12T06:18:07;5.65;;;5.13;;
11121;SDS011;5615;49.304;10.576;2023-08-12T06:20:34;5.25;;;4.75;;
11121;SDS011;5615;49.304;10.576;2023-08-12T06:23:01;5.30;;;4.80;;
11121;SDS011;5615;49.304;10.576;2023-08-12T06:25:27;4.88;;;4.47;;
11121;SDS011;5615;49.304;10.576;2023-08-12T06:27:54;6.93;;;4.85;;
11121;SDS011;5615;49.304;10.576;2023-08-12T06:30:22;5.60;;;4.88;;
11121;SDS011;5615;49.304;10.576;2023-08-12T06:32:48;5.93;;;4.45;;
11121;SDS011;5615;49.304;10.576;2023-08-12T06:35:15;5.72;;;4.32;;
11121;SDS011;5615;49.304;10.576;2023-08-12T06:37:42;5.30;;;4.80;;
11121;SDS011;5615;49.304;10.576;2023-08-12T06:40:08;4.75;;;4.25;;
11121;SDS011;5615;49.304;10.576;2023-08-12T06:42:35;5.07;;;4.63;;
11121;SDS011;5615;49.304;10.576;2023-08-12T06:45:02;5.43;;;4.93;;
11121;SDS011;5615;49.304;10.576;2023-08-12T06:47:31;6.72;;;4.40;;
11121;SDS011;5615;49.304;10.576;2023-08-12T06:49:57;5.15;;;4.25;;
11121;SDS011;5615;49.304;10.576;2023-08-12T06:52:24;6.75;;;4.20;;
11121;SDS011;5615;49.304;10.576;2023-08-12T06:54:51;4.47;;;4.07;;
11121;SDS011;5615;49.304;10.576;2023-08-12T06:57:17;4.60;;;4.20;;
11121;SDS011;5615;49.304;10.576;2023-08-12T06:59:44;4.55;;;4.15;;
11121;SDS011;5615;49.304;10.576;2023-08-12T07:02:11;4.40;;;4.00;;
11121;SDS011;5615;49.304;10.576;2023-08-12T07:04:39;7.25;;;4.28;;
11121;SDS011;5615;49.304;10.576;2023-08-12T07:07:06;5.57;;;3.95;;
11121;SDS011;5615;49.304;10.576;2023-08-12T07:09:32;4.72;;;4.32;;
11121;SDS011;5615;49.304;10.576;2023-08-12T07:11:59;6.15;;;4.68;;
11121;SDS011;5615;49.304;10.576;2023-08-12T07:14:26;5.55;;;4.25;;
11121;SDS011;5615;49.304;10.576;2023-08-12T07:16:53;4.95;;;4.45;;
11121;SDS011;5615;49.304;10.576;2023-08-12T07:19:20;6.18;;;4.95;;
11121;SDS011;5615;49.304;10.576;2023-08-12T07:21:49;4.78;;;4.28;;
11121;SDS011;5615;49.304;10.576;2023-08-12T07:24:16;4.38;;;4.00;;
11121;SDS011;5615;49.304;10.576;2023-08-12T07:26:42;5.07;;;4.15;;
11121;SDS011;5615;49.304;10.576;2023-08-12T07:29:09;5.63;;;4.32;;
11121;SDS011;5615;49.304;10.576;2023-08-12T07:31:36;4.53;;;4.13;;
11121;SDS011;5615;49.304;10.576;2023-08-12T07:34:03;4.72;;;4.00;;
11121;SDS011;5615;49.304;10.576;2023-08-12T07:36:31;4.53;;;4.13;;
11121;SDS011;5615;49.304;10.576;2023-08-12T07:38:59;4.55;;;4.15;;
11121;SDS011;5615;49.304;10.576;2023-08-12T07:41:25;6.88;;;4.30;;
11121;SDS011;5615;49.304;10.576;2023-08-12T07:43:53;4.40;;;4.03;;
11121;SDS011;5615;49.304;10.576;2023-08-12T07:46:19;5.07;;;4.13;;
11121;SDS011;5615;49.304;10.576;2023-08-12T07:48:46;6.97;;;4.47;;
11121;SDS011;5615;49.304;10.576;2023-08-12T07:51:13;4.82;;;3.67;;
11121;SDS011;5615;49.304;10.576;2023-08-12T07:53:39;5.53;;;4.00;;
11121;SDS011;5615;49.304;10.576;2023-08-12T07:56:07;4.82;;;4.38;;
11121;SDS011;5615;49.304;10.576;2023-08-12T07:58:34;5.45;;;4.10;;
11121;SDS011;5615;49.304;10.576;2023-08-12T08:01:01;4.63;;;4.22;;
11121;SDS011;5615;49.304;10.576;2023-08-12T08:03:29;6.57;;;4.15;;
11121;SDS011;5615;49.304;10.576;2023-08-12T08:05:56;5.05;;;4.28;;
11121;SDS011;5615;49.304;10.576;2023-08-12T08:08:23;4.72;;;4.28;;
11121;SDS011;5615;49.304;10.576;2023-08-12T08:10:49;7.05;;;4.00;;
11121;SDS011;5615;49.304;10.576;2023-08-12T08:13:17;4.70;;;4.30;;
11121;SDS011;5615;49.304;10.576;2023-08-12T08:15:44;5.05;;;3.83;;
11121;SDS011;5615;49.304;10.576;2023-08-12T08:18:11;4.60;;;4.20;;
11121;SDS011;5615;49.304;10.576;2023-08-12T08:20:38;4.80;;;3.97;;
11121;SDS011;5615;49.304;10.576;2023-08-12T08:23:05;4.40;;;4.00;;
11121;SDS011;5615;49.304;10.576;2023-08-12T08:25:32;4.28;;;3.92;;
11121;SDS011;5615;49.304;10.576;2023-08-12T08:27:58;4.78;;;4.13;;
11121;SDS011;5615;49.304;10.576;2023-08-12T08:30:26;6.45;;;4.22;;
11121;SDS011;5615;49.304;10.576;2023-08-12T08:32:53;5.93;;;3.92;;
11121;SDS011;5615;49.304;10.576;2023-08-12T08:35:20;5.75;;;4.20;;
11121;SDS011;5615;49.304;10.576;2023-08-12T08:37:46;6.68;;;4.20;;
11121;SDS011;5615;49.304;10.576;2023-08-12T08:40:13;4.85;;;4.05;;
11121;SDS011;5615;49.304;10.576;2023-08-12T08:42:39;4.22;;;3.83;;
11121;SDS011;5615;49.304;10.576;2023-08-12T08:45:12;6.53;;;4.18;;
11121;SDS011;5615;49.304;10.576;2023-08-12T08:47:41;4.70;;;4.18;;
11121;SDS011;5615;49.304;10.576;2023-08-12T08:50:09;5.13;;;4.18;;
11121;SDS011;5615;49.304;10.576;2023-08-12T08:52:36;7.05;;;4.82;;
11121;SDS011;5615;49.304;10.576;2023-08-12T08:55:03;4.95;;;4.40;;
11121;SDS011;5615;49.304;10.576;2023-08-12T08:57:30;5.15;;;4.68;;
11121;SDS011;5615;49.304;10.576;2023-08-12T08:59:57;6.00;;;4.15;;
11121;SDS011;5615;49.304;10.576;2023-08-12T09:02:24;6.68;;;4.20;;
11121;SDS011;5615;49.304;10.576;2023-08-12T09:04:52;8.07;;;4.15;;
11121;SDS011;5615;49.304;10.576;2023-08-12T09:07:20;5.60;;;4.40;;
11121;SDS011;5615;49.304;10.576;2023-08-12T09:09:48;5.13;;;4.32;;
11121;SDS011;5615;49.304;10.576;2023-08-12T09:12:18;5.13;;;4.65;;
11121;SDS011;5615;49.304;10.576;2023-08-12T09:14:45;5.68;;;4.50;;
11121;SDS011;5615;49.304;10.576;2023-08-12T09:17:12;5.78;;;4.20;;
11121;SDS011;5615;49.304;10.576;2023-08-12T09:19:39;5.05;;;4.55;;
11121;SDS011;5615;49.304;10.576;2023-08-12T09:22:06;5.50;;;4.18;;
11121;SDS011;5615;49.304;10.576;2023-08-12T09:24:35;10.27;;;4.80;;
11121;SDS011;5615;49.304;10.576;2023-08-12T09:27:02;5.38;;;4.68;;
11121;SDS011;5615;49.304;10.576;2023-08-12T09:29:29;4.82;;;4.32;;
11121;SDS011;5615;49.304;10.576;2023-08-12T09:32:04;4.88;;;4.30;;
11121;SDS011;5615;49.304;10.576;2023-08-12T09:34:32;7.63;;;4.43;;
11121;SDS011;5615;49.304;10.576;2023-08-12T09:36:59;6.80;;;4.45;;
11121;SDS011;5615;49.304;10.576;2023-08-12T09:39:27;5.78;;;5.28;;
11121;SDS011;5615;49.304;10.576;2023-08-12T09:41:55;5.10;;;4.47;;
11121;SDS011;5615;49.304;10.576;2023-08-12T09:44:23;5.70;;;5.10;;
11121;SDS011;5615;49.304;10.576;2023-08-12T09:46:52;4.97;;;4.57;;
11121;SDS011;5615;49.304;10.576;2023-08-12T09:49:22;5.30;;;4.40;;
11121;SDS011;5615;49.304;10.576;2023-08-12T09:51:49;5.13;;;4.63;;
11121;SDS011;5615;49.304;10.576;2023-08-12T09:54:16;5.25;;;4.75;;
11121;SDS011;5615;49.304;10.576;2023-08-12T09:56:46;5.40;;;4.90;;
11121;SDS011;5615;49.304;10.576;2023-08-12T09:59:14;5.30;;;4.80;;
11121;SDS011;5615;49.304;10.576;2023-08-12T10:01:44;6.88;;;5.07;;
11121;SDS011;5615;49.304;10.576;2023-08-12T10:04:11;4.82;;;4.32;;
11121;SDS011;5615;49.304;10.576;2023-08-12T10:06:42;6.50;;;4.50;;
11121;SDS011;5615;49.304;10.576;2023-08-12T10:09:10;5.15;;;4.68;;
11121;SDS011;5615;49.304;10.576;2023-08-12T10:11:37;5.22;;;4.18;;
11121;SDS011;5615;49.304;10.576;2023-08-12T10:14:05;4.70;;;4.30;;
11121;SDS011;5615;49.304;10.576;2023-08-12T10:16:34;4.28;;;3.97;;
11121;SDS011;5615;49.304;10.576;2023-08-12T10:19:01;5.97;;;4.53;;
11121;SDS011;5615;49.304;10.576;2023-08-12T10:21:30;4.68;;;4.28;;
11121;SDS011;5615;49.304;10.576;2023-08-12T10:23:57;5.35;;;3.83;;
11121;SDS011;5615;49.304;10.576;2023-08-12T10:26:24;6.55;;;3.70;;
11121;SDS011;5615;49.304;10.576;2023-08-12T10:28:51;4.55;;;3.95;;
11121;SDS011;5615;49.304;10.576;2023-08-12T10:31:19;4.55;;;4.15;;
11121;SDS011;5615;49.304;10.576;2023-08-12T10:33:46;4.90;;;3.83;;
11121;SDS011;5615;49.304;10.576;2023-08-12T10:36:15;4.22;;;3.88;;
11121;SDS011;5615;49.304;10.576;2023-08-12T10:38:44;5.82;;;4.07;;
11121;SDS011;5615;49.304;10.576;2023-08-12T10:41:14;4.50;;;4.10;;
11121;SDS011;5615;49.304;10.576;2023-08-12T10:43:49;4.15;;;3.75;;
11121;SDS011;5615;49.304;10.576;2023-08-12T10:46:22;6.50;;;4.15;;
11121;SDS011;5615;49.304;10.576;2023-08-12T10:48:57;4.35;;;3.72;;
11121;SDS011;5615;49.304;10.576;2023-08-12T10:51:39;4.05;;;3.70;;
11121;SDS011;5615;49.304;10.576;2023-08-12T10:54:13;6.25;;;4.22;;
11121;SDS011;5615;49.304;10.576;2023-08-12T10:59:51;3.95;;;3.63;;
11121;SDS011;5615;49.304;10.576;2023-08-12T11:02:21;4.78;;;3.70;;
11121;SDS011;5615;49.304;10.576;2023-08-12T11:04:52;4.28;;;3.90;;
11121;SDS011;5615;49.304;10.576;2023-08-12T11:07:20;4.43;;;4.03;;
11121;SDS011;5615;49.304;10.576;2023-08-12T11:09:51;4.53;;;3.92;;
11121;SDS011;5615;49.304;10.576;2023-08-12T11:12:23;4.57;;;4.18;;
11121;SDS011;5615;49.304;10.576;2023-08-12T11:14:56;4.82;;;3.70;;
11121;SDS011;5615;49.304;10.576;2023-08-12T11:17:28;4.18;;;3.83;;
11121;SDS011;5615;49.304;10.576;2023-08-12T11:19:56;4.28;;;3.97;;
11121;SDS011;5615;49.304;10.576;2023-08-12T11:22:23;4.30;;;3.97;;
11121;SDS011;5615;49.304;10.576;2023-08-12T11:24:51;4.68;;;4.22;;
11121;SDS011;5615;49.304;10.576;2023-08-12T11:27:18;4.90;;;3.97;;
11121;SDS011;5615;49.304;10.576;2023-08-12T11:29:45;4.68;;;4.18;;
11121;SDS011;5615;49.304;10.576;2023-08-12T11:32:11;4.90;;;4.47;;
11121;SDS011;5615;49.304;10.576;2023-08-12T11:34:39;4.15;;;3.80;;
11121;SDS011;5615;49.304;10.576;2023-08-12T11:37:06;6.05;;;4.30;;
11121;SDS011;5615;49.304;10.576;2023-08-12T11:39:33;7.18;;;4.00;;
11121;SDS011;5615;49.304;10.576;2023-08-12T11:42:00;5.38;;;4.15;;
11121;SDS011;5615;49.304;10.576;2023-08-12T11:44:27;5.47;;;4.28;;
11121;SDS011;5615;49.304;10.576;2023-08-12T11:46:53;4.22;;;3.83;;
11121;SDS011;5615;49.304;10.576;2023-08-12T11:49:20;4.70;;;3.60;;
11121;SDS011;5615;49.304;10.576;2023-08-12T11:51:48;5.32;;;3.75;;
11121;SDS011;5615;49.304;10.576;2023-08-12T11:54:15;6.80;;;3.72;;
11121;SDS011;5615;49.304;10.576;2023-08-12T11:56:42;4.72;;;4.30;;
11121;SDS011;5615;49.304;10.576;2023-08-12T11:59:09;6.03;;;3.95;;
11121;SDS011;5615;49.304;10.576;2023-08-12T12:01:37;3.70;;;3.40;;
11121;SDS011;5615;49.304;10.576;2023-08-12T12:04:03;6.72;;;3.40;;
11121;SDS011;5615;49.304;10.576;2023-08-12T12:06:31;4.38;;;3.80;;
11121;SDS011;5615;49.304;10.576;2023-08-12T12:09:03;3.55;;;3.25;;
11121;SDS011;5615;49.304;10.576;2023-08-12T12:11:31;4.75;;;3.47;;
11121;SDS011;5615;49.304;10.576;2023-08-12T12:14:00;6.10;;;3.40;;
11121;SDS011;5615;49.304;10.576;2023-08-12T12:16:36;4.22;;;3.92;;
11121;SDS011;5615;49.304;10.576;2023-08-12T12:19:04;4.82;;;3.63;;
11121;SDS011;5615;49.304;10.576;2023-08-12T12:21:38;3.75;;;3.40;;
11121;SDS011;5615;49.304;10.576;2023-08-12T12:24:07;4.47;;;4.07;;
11121;SDS011;5615;49.304;10.576;2023-08-12T12:26:34;4.57;;;3.50;;
11121;SDS011;5615;49.304;10.576;2023-08-12T12:29:01;3.90;;;3.58;;
11121;SDS011;5615;49.304;10.576;2023-08-12T12:31:28;4.35;;;3.50;;
11121;SDS011;5615;49.304;10.576;2023-08-12T12:33:55;3.53;;;3.22;;
11121;SDS011;5615;49.304;10.576;2023-08-12T12:36:22;3.60;;;3.30;;
11121;SDS011;5615;49.304;10.576;2023-08-12T12:38:49;4.20;;;3.80;;
11121;SDS011;5615;49.304;10.576;2023-08-12T12:41:17;4.40;;;4.00;;
11121;SDS011;5615;49.304;10.576;2023-08-12T12:43:43;5.10;;;3.90;;
11121;SDS011;5615;49.304;10.576;2023-08-12T12:46:10;6.07;;;4.45;;
11121;SDS011;5615;49.304;10.576;2023-08-12T12:48:37;5.75;;;4.50;;
11121;SDS011;5615;49.304;10.576;2023-08-12T12:51:04;6.47;;;4.00;;
11121;SDS011;5615;49.304;10.576;2023-08-12T12:53:30;4.45;;;4.15;;
11121;SDS011;5615;49.304;10.576;2023-08-12T12:55:57;7.15;;;4.57;;
11121;SDS011;5615;49.304;10.576;2023-08-12T12:58:30;4.70;;;4.07;;
11121;SDS011;5615;49.304;10.576;2023-08-12T13:00:57;5.15;;;3.88;;
11121;SDS011;5615;49.304;10.576;2023-08-12T13:03:23;4.90;;;4.10;;
11121;SDS011;5615;49.304;10.576;2023-08-12T13:05:50;5.10;;;4.18;;
11121;SDS011;5615;49.304;10.576;2023-08-12T13:08:17;5.30;;;4.22;;
11121;SDS011;5615;49.304;10.576;2023-08-12T13:10:43;5.30;;;4.00;;
11121;SDS011;5615;49.304;10.576;2023-08-12T13:13:12;4.70;;;4.30;;
11121;SDS011;5615;49.304;10.576;2023-08-12T13:15:41;7.15;;;3.70;;
11121;SDS011;5615;49.304;10.576;2023-08-12T13:18:08;4.40;;;3.90;;
11121;SDS011;5615;49.304;10.576;2023-08-12T13:20:35;4.82;;;3.53;;
11121;SDS011;5615;49.304;10.576;2023-08-12T13:23:02;4.22;;;3.78;;
11121;SDS011;5615;49.304;10.576;2023-08-12T13:25:30;4.07;;;3.67;;
11121;SDS011;5615;49.304;10.576;2023-08-12T13:27:58;5.70;;;3.70;;
11121;SDS011;5615;49.304;10.576;2023-08-12T13:30:25;4.97;;;4.07;;
11121;SDS011;5615;49.304;10.576;2023-08-12T13:32:53;5.22;;;3.50;;
11121;SDS011;5615;49.304;10.576;2023-08-12T13:35:19;4.53;;;3.53;;
11121;SDS011;5615;49.304;10.576;2023-08-12T13:37:46;4.57;;;4.07;;
11121;SDS011;5615;49.304;10.576;2023-08-12T13:40:13;5.25;;;3.70;;
11121;SDS011;5615;49.304;10.576;2023-08-12T13:42:40;4.38;;;3.97;;
11121;SDS011;5615;49.304;10.576;2023-08-12T13:45:07;4.72;;;4.10;;
11121;SDS011;5615;49.304;10.576;2023-08-12T13:47:34;5.40;;;4.07;;
11121;SDS011;5615;49.304;10.576;2023-08-12T13:50:03;6.88;;;4.43;;
11121;SDS011;5615;49.304;10.576;2023-08-12T13:52:30;5.15;;;4.40;;
11121;SDS011;5615;49.304;10.576;2023-08-12T13:54:56;9.85;;;4.18;;
11121;SDS011;5615;49.304;10.576;2023-08-12T13:57:23;8.00;;;4.30;;
11121;SDS011;5615;49.304;10.576;2023-08-12T13:59:50;5.22;;;4.78;;
11121;SDS011;5615;49.304;10.576;2023-08-12T14:02:16;8.70;;;5.72;;
11121;SDS011;5615;49.304;10.576;2023-08-12T14:04:43;7.97;;;5.07;;
11121;SDS011;5615;49.304;10.576;2023-08-12T14:07:11;8.18;;;4.55;;
11121;SDS011;5615;49.304;10.576;2023-08-12T14:09:37;12.25;;;4.50;;
11121;SDS011;5615;49.304;10.576;2023-08-12T14:12:04;6.28;;;4.95;;
11121;SDS011;5615;49.304;10.576;2023-08-12T14:14:31;8.43;;;4.38;;
11121;SDS011;5615;49.304;10.576;2023-08-12T14:16:58;8.15;;;4.35;;
11121;SDS011;5615;49.304;10.576;2023-08-12T14:19:25;9.32;;;4.28;;
11121;SDS011;5615;49.304;10.576;2023-08-12T14:21:51;6.53;;;4.10;;
11121;SDS011;5615;49.304;10.576;2023-08-12T14:24:19;6.05;;;4.43;;
11121;SDS011;5615;49.304;10.576;2023-08-12T14:26:46;8.40;;;5.30;;
11121;SDS011;5615;49.304;10.576;2023-08-12T14:29:13;8.50;;;4.90;;
11121;SDS011;5615;49.304;10.576;2023-08-12T14:31:39;5.28;;;4.78;;
11121;SDS011;5615;49.304;10.576;2023-08-12T14:34:06;8.60;;;4.65;;
11121;SDS011;5615;49.304;10.576;2023-08-12T14:36:32;6.72;;;5.20;;
11121;SDS011;5615;49.304;10.576;2023-08-12T14:39:01;11.43;;;5.93;;
11121;SDS011;5615;49.304;10.576;2023-08-12T14:41:29;8.13;;;6.35;;
11121;SDS011;5615;49.304;10.576;2023-08-12T14:43:55;12.02;;;6.80;;
11121;SDS011;5615;49.304;10.576;2023-08-12T14:46:22;7.50;;;6.25;;